Time;durP1;ratioP1;P1;durP2;ratioP2;P2;SDS_P1;SDS_P2;PMS_P1;PMS_P2;Temp;Humidity;BMP_temperature;BMP_pressure;BME280_temperature;BME280_humidity;BME280_pressure;Samples;Min_cycle;Max_cycle;Signal;HPM_P1;HPM_P2
2022/08/18 00:00:50;;;;;;;12.25;8.02;;;26.90;54.90;;;;;;4970754;28;20031;-72
2022/08/18 00:03:19;;;;;;;13.80;8.02;;;26.90;55.50;;;;;;4970483;28;20046;-72
2022/08/18 00:05:45;;;;;;;11.73;8.95;;;26.90;55.40;;;;;;4968793;28;20042;-72
2022/08/18 00:08:11;;;;;;;11.48;8.30;;;26.90;55.20;;;;;;4970376;28;20031;-71
2022/08/18 00:10:40;;;;;;;12.10;8.13;;;26.90;55.50;;;;;;4951150;28;20035;-72
2022/08/18 00:13:06;;;;;;;11.05;8.25;;;26.90;55.10;;;;;;4951409;28;20031;-72
2022/08/18 00:15:35;;;;;;;17.90;8.37;;;27.00;55.60;;;;;;4953535;28;20467;-72
2022/08/18 00:18:01;;;;;;;12.48;8.13;;;26.90;55.50;;;;;;4954011;29;20361;-72
2022/08/18 00:20:26;;;;;;;12.45;8.05;;;26.90;55.40;;;;;;4952892;28;20038;-72
2022/08/18 00:22:55;;;;;;;13.00;7.70;;;26.90;55.60;;;;;;4954029;28;20025;-72
2022/08/18 00:25:21;;;;;;;11.13;7.75;;;26.90;55.90;;;;;;4953386;28;20028;-72
2022/08/18 00:27:47;;;;;;;16.40;8.55;;;26.90;55.80;;;;;;4954185;29;20398;-72
2022/08/18 00:30:17;;;;;;;12.77;7.72;;;26.80;56.10;;;;;;4969426;23;20126;-78
2022/08/18 00:32:47;;;;;;;16.27;7.50;;;26.80;56.10;;;;;;4974436;28;20031;-79
2022/08/18 00:35:28;;;;;;;12.70;7.90;;;26.80;56.10;;;;;;4992159;28;20023;-80
2022/08/18 00:37:55;;;;;;;9.45;7.53;;;26.80;56.00;;;;;;4992951;28;20032;-80
2022/08/18 00:40:27;;;;;;;31.67;26.55;;;26.80;56.00;;;;;;4993254;28;20053;-79
2022/08/18 00:43:00;;;;;;;36.42;30.38;;;26.80;55.80;;;;;;4976022;28;20026;-79
2022/08/18 00:45:39;;;;;;;24.58;18.50;;;26.80;55.80;;;;;;4974820;28;20129;-79
2022/08/18 00:48:07;;;;;;;20.73;13.90;;;26.80;55.80;;;;;;4992883;28;20054;-78
2022/08/18 00:50:48;;;;;;;18.02;11.43;;;26.80;55.90;;;;;;4975263;28;20077;-78
2022/08/18 00:53:21;;;;;;;13.30;9.68;;;26.70;55.80;;;;;;4975330;28;20546;-79
2022/08/18 00:55:48;;;;;;;15.27;9.38;;;26.70;55.70;;;;;;4991757;28;20395;-79
2022/08/18 00:58:26;;;;;;;21.55;9.23;;;26.70;55.70;;;;;;4992533;28;20479;-80
2022/08/18 01:00:52;;;;;;;14.23;8.57;;;26.70;55.80;;;;;;4975097;28;20080;-80
2022/08/18 01:03:20;;;;;;;18.27;8.23;;;26.70;55.80;;;;;;4959124;28;20026;-81
2022/08/18 01:06:08;;;;;;;13.93;8.32;;;26.70;55.70;;;;;;4974092;28;20522;-81
2022/08/18 01:08:34;;;;;;;14.65;8.95;;;26.70;55.70;;;;;;4959251;28;20034;-80
2022/08/18 01:11:01;;;;;;;18.67;9.88;;;26.60;55.70;;;;;;4943163;28;20088;-80
2022/08/18 01:13:31;;;;;;;15.68;11.02;;;26.70;55.90;;;;;;4958953;28;20406;-80
2022/08/18 01:15:58;;;;;;;18.73;12.55;;;26.70;56.00;;;;;;4991463;28;20026;-81
2022/08/18 01:24:08;;;;;;;19.85;10.30;;;26.60;55.60;;;;;;4992249;28;20040;-80
2022/08/18 01:26:37;;;;;;;13.20;8.98;;;26.60;55.40;;;;;;4991396;28;20038;-80
2022/08/18 01:29:08;;;;;;;13.48;8.77;;;26.60;55.50;;;;;;4974881;28;20038;-80
2022/08/18 01:31:41;;;;;;;13.48;8.50;;;26.60;55.50;;;;;;4992237;28;20552;-80
2022/08/18 01:34:09;;;;;;;14.80;8.05;;;26.60;55.40;;;;;;4992083;28;20475;-80
2022/08/18 01:36:39;;;;;;;10.23;7.80;;;26.60;55.40;;;;;;4974045;28;20034;-81
2022/08/18 01:39:08;;;;;;;10.90;8.40;;;26.50;55.40;;;;;;4975078;28;20030;-80
2022/08/18 01:41:34;;;;;;;12.00;7.28;;;26.50;55.50;;;;;;4974999;28;20383;-80
2022/08/18 01:44:01;;;;;;;16.10;8.45;;;26.50;55.40;;;;;;4959202;28;20038;-79
2022/08/18 01:46:30;;;;;;;16.45;8.70;;;26.50;55.50;;;;;;4973846;28;20036;-80
2022/08/18 01:49:00;;;;;;;10.68;7.70;;;26.50;55.50;;;;;;4958927;28;20057;-80
2022/08/18 01:51:31;;;;;;;15.45;7.97;;;26.50;55.50;;;;;;4974700;28;20077;-80
2022/08/18 01:53:57;;;;;;;10.98;8.70;;;26.50;55.50;;;;;;4991978;28;20121;-80
2022/08/18 01:56:26;;;;;;;12.27;8.40;;;26.40;55.40;;;;;;4957742;28;20033;-79
2022/08/18 01:58:53;;;;;;;11.38;7.80;;;26.50;55.50;;;;;;4958943;28;20046;-80
2022/08/18 02:01:21;;;;;;;13.50;8.10;;;26.50;55.50;;;;;;4974668;28;20030;-80
2022/08/18 02:03:51;;;;;;;14.95;8.48;;;26.40;55.50;;;;;;4991901;28;20073;-81
2022/08/18 02:06:18;;;;;;;12.57;8.15;;;26.40;55.50;;;;;;4973596;28;20502;-80
2022/08/18 02:08:44;;;;;;;13.80;8.80;;;26.40;55.60;;;;;;4992237;28;20092;-81
2022/08/18 02:11:11;;;;;;;11.30;8.55;;;26.40;55.60;;;;;;4958640;28;20246;-79
2022/08/18 02:13:39;;;;;;;15.75;9.27;;;26.40;55.70;;;;;;4974505;28;20490;-80
2022/08/18 02:16:05;;;;;;;13.30;9.60;;;26.40;55.70;;;;;;4973427;28;20030;-80
2022/08/18 02:18:34;;;;;;;16.48;9.10;;;26.40;55.80;;;;;;4977638;28;20052;-80
2022/08/18 02:21:13;;;;;;;12.25;8.48;;;26.40;55.80;;;;;;4978064;28;20165;-80
2022/08/18 02:23:41;;;;;;;15.85;8.77;;;26.40;55.80;;;;;;4995193;28;20050;-80
2022/08/18 02:26:09;;;;;;;10.48;8.07;;;26.30;55.90;;;;;;4977006;28;20026;-79
2022/08/18 02:28:35;;;;;;;13.40;8.63;;;26.30;55.90;;;;;;4977720;28;20026;-78
2022/08/18 02:31:14;;;;;;;19.52;8.98;;;26.30;56.00;;;;;;4977777;28;20331;-78
2022/08/18 02:33:41;;;;;;;12.93;9.07;;;26.20;56.10;;;;;;4977940;28;20452;-78
2022/08/18 02:36:07;;;;;;;16.90;8.43;;;26.20;56.10;;;;;;4976726;28;20033;-77
2022/08/18 02:38:33;;;;;;;14.98;8.38;;;26.20;56.10;;;;;;4994776;28;20018;-78
2022/08/18 02:41:02;;;;;;;12.27;8.68;;;26.20;56.20;;;;;;4994850;28;20113;-78
2022/08/18 02:43:29;;;;;;;12.38;8.63;;;26.20;56.20;;;;;;4994884;28;20022;-78
2022/08/18 02:45:56;;;;;;;14.15;9.07;;;26.20;56.20;;;;;;4993901;28;20026;-78
2022/08/18 02:48:32;;;;;;;10.93;7.95;;;26.20;56.30;;;;;;4994748;28;20462;-78
2022/08/18 02:51:11;;;;;;;14.43;8.93;;;26.20;56.30;;;;;;4977398;28;20034;-78
2022/08/18 02:53:39;;;;;;;13.48;8.93;;;26.20;56.20;;;;;;4994617;28;20487;-78
2022/08/18 02:56:26;;;;;;;15.25;9.10;;;26.20;56.70;;;;;;4993639;28;20109;-79
2022/08/18 02:58:56;;;;;;;14.70;8.88;;;26.30;56.10;;;;;;4961870;28;20117;-79
2022/08/18 03:01:22;;;;;;;;;;;26.30;56.10;;;;;;4995523;28;20027;-78
2022/08/18 03:03:48;;;;;;;14.50;8.60;;;26.30;56.10;;;;;;4977543;28;19948;-79
2022/08/18 03:06:15;;;;;;;14.45;9.02;;;26.30;56.40;;;;;;4993764;28;20058;-79
2022/08/18 03:08:42;;;;;;;14.15;8.32;;;26.20;56.20;;;;;;4945129;28;20093;-78
2022/08/18 03:11:08;;;;;;;15.98;8.80;;;26.20;56.20;;;;;;4994344;28;20022;-77
2022/08/18 03:13:33;;;;;;;15.75;8.73;;;26.20;56.30;;;;;;4994423;28;20134;-78
2022/08/18 03:15:59;;;;;;;12.75;8.73;;;26.20;56.40;;;;;;4993390;28;20042;-78
2022/08/18 03:18:25;;;;;;;14.23;8.80;;;26.20;56.50;;;;;;4993945;28;20077;-78
2022/08/18 03:20:51;;;;;;;17.10;9.77;;;26.20;56.50;;;;;;4994156;28;20467;-78
2022/08/18 03:23:17;;;;;;;16.92;9.25;;;26.20;56.60;;;;;;4976657;28;20113;-78
2022/08/18 03:25:48;;;;;;;11.32;8.70;;;26.20;56.90;;;;;;4993295;28;20493;-78
2022/08/18 03:28:15;;;;;;;14.82;8.95;;;26.10;57.00;;;;;;4975707;28;20076;-78
2022/08/18 03:30:42;;;;;;;18.35;9.23;;;26.10;57.10;;;;;;4993672;28;20054;-78
2022/08/18 03:33:08;;;;;;;12.07;8.93;;;26.00;57.10;;;;;;4993938;28;20391;-78
2022/08/18 03:35:37;;;;;;;14.60;9.32;;;26.10;57.10;;;;;;4975428;28;20030;-78
2022/08/18 03:38:04;;;;;;;10.40;8.60;;;26.10;57.10;;;;;;4993916;28;20055;-78
2022/08/18 03:40:30;;;;;;;12.18;9.63;;;26.10;57.20;;;;;;4993788;28;20413;-78
2022/08/18 03:42:55;;;;;;;14.88;9.32;;;26.10;57.30;;;;;;4993789;28;20105;-79
2022/08/18 03:45:23;;;;;;;16.13;9.25;;;26.00;57.30;;;;;;4975898;28;20036;-79
2022/08/18 03:47:51;;;;;;;14.50;9.77;;;26.00;57.20;;;;;;4993572;28;20034;-78
2022/08/18 03:50:18;;;;;;;12.33;8.83;;;26.00;57.20;;;;;;4960249;28;20030;-78
2022/08/18 03:52:48;;;;;;;12.25;9.57;;;26.00;57.20;;;;;;4993336;28;20408;-77
2022/08/18 03:55:14;;;;;;;13.50;8.82;;;26.00;57.30;;;;;;4992608;28;20113;-78
2022/08/18 03:57:42;;;;;;;14.65;9.45;;;26.10;57.30;;;;;;4959948;28;20045;-77
2022/08/18 04:00:08;;;;;;;18.33;12.38;;;26.00;57.10;;;;;;4993364;28;20030;-78
2022/08/18 04:02:34;;;;;;;16.35;13.70;;;26.10;57.20;;;;;;4975890;28;20026;-78
2022/08/18 04:05:00;;;;;;;22.23;16.13;;;26.10;57.10;;;;;;4993075;28;20041;-77
2022/08/18 04:07:26;;;;;;;21.67;19.27;;;26.10;57.00;;;;;;4975406;28;20483;-75
2022/08/18 04:09:52;;;;;;;24.00;21.23;;;26.10;57.10;;;;;;4993287;28;20069;-77
2022/08/18 04:12:17;;;;;;;21.80;16.88;;;26.10;57.10;;;;;;4993030;28;20030;-77
2022/08/18 04:14:46;;;;;;;19.13;14.65;;;26.10;57.20;;;;;;4993023;28;20085;-77
2022/08/18 04:17:12;;;;;;;21.45;15.80;;;26.10;57.10;;;;;;4975073;28;20023;-77
2022/08/18 04:19:38;;;;;;;25.00;21.60;;;26.20;57.10;;;;;;4975790;28;20026;-77
2022/08/18 04:22:04;;;;;;;28.52;21.40;;;26.10;57.20;;;;;;4992837;28;20378;-77
2022/08/18 04:24:33;;;;;;;25.10;19.65;;;26.10;57.20;;;;;;4959766;28;20041;-77
2022/08/18 04:27:01;;;;;;;25.35;18.77;;;26.00;57.30;;;;;;4992087;28;20030;-77
2022/08/18 04:29:28;;;;;;;22.08;18.55;;;26.00;57.40;;;;;;4992848;28;20084;-77
2022/08/18 04:31:54;;;;;;;29.27;20.38;;;26.00;57.40;;;;;;4975170;28;20034;-77
2022/08/18 04:34:21;;;;;;;23.92;16.13;;;26.00;57.50;;;;;;4992752;28;20088;-78
2022/08/18 04:36:52;;;;;;;20.08;13.80;;;25.90;57.40;;;;;;4992088;28;20434;-78
2022/08/18 04:39:19;;;;;;;18.20;11.80;;;26.00;57.50;;;;;;4992498;28;20108;-78
2022/08/18 04:41:47;;;;;;;16.25;10.80;;;25.90;57.60;;;;;;4992562;28;20138;-79
2022/08/18 04:44:16;;;;;;;18.73;11.98;;;25.90;57.60;;;;;;4975320;28;20026;-77
2022/08/18 04:46:46;;;;;;;22.98;15.35;;;25.90;57.50;;;;;;4991736;28;20367;-79
2022/08/18 04:49:13;;;;;;;19.42;12.95;;;25.90;57.50;;;;;;4975450;28;20114;-79
2022/08/18 04:51:42;;;;;;;18.10;12.65;;;25.90;57.50;;;;;;4992994;28;20117;-78
2022/08/18 04:54:08;;;;;;;16.33;11.45;;;25.90;57.60;;;;;;4992669;28;20406;-80
2022/08/18 04:56:37;;;;;;;16.20;11.38;;;25.90;57.40;;;;;;4958731;28;20037;-81
2022/08/18 04:59:09;;;;;;;20.73;10.40;;;25.90;57.50;;;;;;4959208;28;20463;-80
2022/08/18 05:01:46;;;;;;;17.02;11.02;;;25.90;57.40;;;;;;4986941;28;20483;-80
2022/08/18 05:04:13;;;;;;;15.23;10.90;;;25.90;57.30;;;;;;4965298;28;20042;-80
2022/08/18 05:06:41;;;;;;;17.38;12.50;;;25.90;57.30;;;;;;4954143;28;20022;-80
2022/08/18 05:09:09;;;;;;;26.45;19.33;;;25.90;57.40;;;;;;4939639;28;20038;-77
2022/08/18 05:11:36;;;;;;;25.33;18.55;;;25.90;57.50;;;;;;4972750;28;20062;-78
2022/08/18 05:14:06;;;;;;;19.65;15.80;;;25.90;57.50;;;;;;4955517;28;20676;-78
2022/08/18 05:16:34;;;;;;;20.80;14.85;;;25.90;57.50;;;;;;4954857;28;20442;-77
2022/08/18 05:19:03;;;;;;;19.90;15.87;;;25.90;57.50;;;;;;4972992;28;20390;-77
2022/08/18 05:21:29;;;;;;;18.35;15.15;;;25.90;57.60;;;;;;4955436;28;20632;-78
2022/08/18 05:23:55;;;;;;;20.85;13.90;;;25.90;57.60;;;;;;4955501;28;20026;-79
2022/08/18 05:26:21;;;;;;;19.13;12.63;;;25.90;57.50;;;;;;4971947;28;20030;-80
2022/08/18 05:28:47;;;;;;;15.88;12.18;;;25.90;57.90;;;;;;4972732;28;20031;-79
2022/08/18 05:31:17;;;;;;;20.83;12.25;;;25.90;57.20;;;;;;4955413;28;20034;-79
2022/08/18 05:33:44;;;;;;;18.27;11.82;;;25.90;57.30;;;;;;4955677;28;20023;-80
2022/08/18 05:36:23;;;;;;;16.52;11.98;;;25.90;57.30;;;;;;4954850;28;20395;-78
2022/08/18 05:39:18;;;;;;;17.17;11.43;;;26.00;57.50;;;;;;4955442;28;20031;-80
2022/08/18 05:42:02;;;;;;;15.05;11.15;;;25.90;57.30;;;;;;4955007;28;20062;-78
2022/08/18 05:44:31;;;;;;;18.30;10.90;;;25.90;57.20;;;;;;4955342;28;20447;-78
2022/08/18 05:47:12;;;;;;;23.88;11.52;;;25.90;57.20;;;;;;4971752;28;20026;-79
2022/08/18 05:49:39;;;;;;;20.33;11.73;;;26.00;57.30;;;;;;4972664;28;20052;-79
2022/08/18 05:52:13;;;;;;;17.55;11.70;;;26.00;57.40;;;;;;4956439;28;20503;-79
2022/08/18 05:57:36;;;;;;;19.60;14.00;;;26.00;57.40;;;;;;4975715;28;20030;-80
2022/08/18 06:00:04;;;;;;;28.05;20.45;;;26.00;57.20;;;;;;4976229;28;20117;-80
2022/08/18 06:02:44;;;;;;;29.48;23.35;;;26.00;57.40;;;;;;4976202;28;20032;-80
2022/08/18 06:05:53;;;;;;;25.17;20.40;;;26.00;57.60;;;;;;4958035;28;20499;-80
2022/08/18 06:08:24;;;;;;;27.97;20.63;;;26.00;57.60;;;;;;4968720;28;20478;-80
2022/08/18 06:10:50;;;;;;;20.85;17.00;;;26.00;57.70;;;;;;4958908;28;20035;-80
2022/08/18 06:13:18;;;;;;;20.35;16.00;;;26.00;57.50;;;;;;4958534;28;20518;-79
2022/08/18 06:16:03;;;;;;;19.05;13.98;;;26.00;57.70;;;;;;4957570;28;20484;-79
2022/08/18 06:18:55;;;;;;;18.42;12.63;;;25.90;57.40;;;;;;4975686;28;20023;-79
2022/08/18 06:21:21;;;;;;;18.38;12.25;;;25.90;57.40;;;;;;4941841;28;20049;-80
2022/08/18 06:23:59;;;;;;;18.75;11.50;;;25.90;57.80;;;;;;4958237;28;20038;-79
2022/08/18 06:26:36;;;;;;;20.60;11.55;;;25.90;58.60;;;;;;4957541;28;20380;-79
2022/08/18 06:29:30;;;;;;;20.20;11.15;;;25.90;58.20;;;;;;4975734;28;20480;-80
2022/08/18 06:32:35;;;;;;;18.00;11.30;;;25.90;57.90;;;;;;4987106;23;20138;-78
2022/08/18 06:35:19;;;;;;;17.00;10.60;;;25.90;57.90;;;;;;4972318;28;20038;-78
2022/08/18 06:41:01;;;;;;;21.77;13.80;;;26.00;57.80;;;;;;4975581;28;20035;-78
2022/08/18 06:43:31;;;;;;;18.48;12.63;;;26.00;58.10;;;;;;4975073;28;20102;-78
2022/08/18 06:45:57;;;;;;;20.58;12.50;;;26.00;57.50;;;;;;4974816;28;20030;-78
2022/08/18 06:48:42;;;;;;;20.48;12.70;;;26.00;57.40;;;;;;4958182;28;20081;-80
2022/08/18 06:51:12;;;;;;;18.95;12.82;;;26.00;57.20;;;;;;4958177;28;20038;-80
2022/08/18 06:54:05;;;;;;;18.23;12.25;;;26.00;57.10;;;;;;4958153;28;20368;-79
2022/08/18 06:56:48;;;;;;;18.45;11.30;;;26.00;57.40;;;;;;4966821;28;20039;-79
2022/08/18 06:59:18;;;;;;;19.83;11.85;;;26.00;57.30;;;;;;4958236;28;20026;-83
2022/08/18 07:01:46;;;;;;;20.52;11.85;;;26.10;57.30;;;;;;4957879;28;20304;-81
2022/08/18 07:04:38;;;;;;;18.98;11.93;;;26.10;57.40;;;;;;4942009;28;20469;-82
2022/08/18 07:07:30;;;;;;;18.33;12.32;;;26.10;57.60;;;;;;4957325;28;20039;-80
2022/08/18 07:09:56;;;;;;;23.67;11.70;;;26.20;57.70;;;;;;4931592;28;20043;-81
2022/08/18 07:12:25;;;;;;;15.32;11.63;;;26.20;57.60;;;;;;4975080;28;20477;-81
2022/08/18 07:14:55;;;;;;;21.95;11.45;;;26.20;57.50;;;;;;4974877;28;20035;-80
2022/08/18 07:17:28;;;;;;;17.15;11.48;;;26.20;57.40;;;;;;4957289;28;20403;-80
2022/08/18 07:20:00;;;;;;;20.63;12.10;;;26.10;57.50;;;;;;4957851;28;20027;-81
2022/08/18 07:22:27;;;;;;;19.05;11.30;;;26.10;57.50;;;;;;4974936;28;20117;-81
2022/08/18 07:24:55;;;;;;;19.27;12.15;;;26.10;58.10;;;;;;4974779;28;20106;-81
2022/08/18 07:27:39;;;;;;;18.77;11.10;;;26.10;57.70;;;;;;4941408;28;20038;-81
2022/08/18 07:30:11;;;;;;;20.13;12.20;;;26.10;57.50;;;;;;4941902;28;20097;-82
2022/08/18 07:32:49;;;;;;;21.80;12.25;;;26.10;57.50;;;;;;4941601;28;20376;-82
2022/08/18 07:35:24;;;;;;;21.23;12.35;;;26.10;57.40;;;;;;4924772;28;20038;-82
2022/08/18 07:38:11;;;;;;;15.60;11.40;;;26.20;57.70;;;;;;4957552;28;20030;-81
2022/08/18 07:40:51;;;;;;;19.83;11.70;;;26.10;57.60;;;;;;4941764;28;20034;-81
2022/08/18 07:43:45;;;;;;;22.80;11.75;;;26.10;57.70;;;;;;4957309;28;20023;-80
2022/08/18 07:46:49;;;;;;;22.38;11.20;;;26.10;57.80;;;;;;4973777;28;20503;-82
2022/08/18 07:49:21;;;;;;;17.88;11.98;;;26.10;57.60;;;;;;4928345;28;20046;-83
2022/08/18 07:51:53;;;;;;;18.90;11.10;;;26.10;57.60;;;;;;4957015;28;20438;-82
2022/08/18 07:54:48;;;;;;;20.33;11.02;;;26.20;57.80;;;;;;4957203;28;20085;-82
2022/08/18 07:57:34;;;;;;;19.63;10.48;;;26.20;57.60;;;;;;4940501;28;20042;-82
2022/08/18 08:00:12;;;;;;;21.88;13.95;;;26.20;57.40;;;;;;4974608;28;20110;-82
2022/08/18 08:03:02;;;;;;;20.48;14.70;;;26.20;57.70;;;;;;4941705;28;20045;-82
2022/08/18 08:05:51;;;;;;;;;;;26.20;57.70;;;;;;4942940;28;20046;-81
2022/08/18 08:08:29;;;;;;;17.98;12.75;;;26.20;57.20;;;;;;4957099;28;19910;-82
2022/08/18 08:10:58;;;;;;;33.25;13.60;;;26.20;57.10;;;;;;4974250;28;20034;-82
2022/08/18 08:13:42;;;;;;;21.37;13.13;;;26.20;57.40;;;;;;4975280;28;20512;-81
2022/08/18 08:16:17;;;;;;;21.95;12.75;;;26.20;57.50;;;;;;4955374;28;20310;-82
2022/08/18 08:18:58;;;;;;;22.80;12.38;;;26.30;57.70;;;;;;4941266;28;20035;-82
2022/08/18 08:21:30;;;;;;;20.20;11.85;;;26.30;57.60;;;;;;4957221;28;20494;-82
2022/08/18 08:24:10;;;;;;;22.30;11.98;;;26.30;57.50;;;;;;4941888;28;20022;-82
2022/08/18 08:27:11;;;;;;;18.13;11.93;;;26.20;57.40;;;;;;4973360;28;20031;-82
2022/08/18 08:29:54;;;;;;;22.15;11.18;;;26.20;57.90;;;;;;4956516;28;20768;-82
2022/08/18 08:33:06;;;;;;;17.85;12.00;;;26.30;58.00;;;;;;4956809;28;20488;-80
2022/08/18 08:35:47;;;;;;;21.58;12.35;;;26.30;57.80;;;;;;4947716;28;20089;-81
2022/08/18 08:38:34;;;;;;;20.75;11.95;;;26.30;58.70;;;;;;4973975;28;20026;-81
2022/08/18 08:41:04;;;;;;;23.20;12.27;;;26.40;57.70;;;;;;4956395;28;20027;-81
2022/08/18 08:43:36;;;;;;;20.13;11.77;;;26.40;57.50;;;;;;4974097;28;20027;-81
2022/08/18 08:46:10;;;;;;;18.50;11.70;;;26.30;57.30;;;;;;4972459;28;20101;-81
2022/08/18 08:48:46;;;;;;;20.88;11.93;;;26.30;57.30;;;;;;4940995;28;20062;-81
2022/08/18 08:51:49;;;;;;;21.48;12.82;;;26.30;57.50;;;;;;4973575;28;20034;-81
2022/08/18 08:54:36;;;;;;;19.58;12.00;;;26.30;57.80;;;;;;4894797;29;20104;-81
2022/08/18 08:57:04;;;;;;;24.40;12.45;;;26.30;57.90;;;;;;4952160;28;20090;-81
2022/08/18 08:59:30;;;;;;;17.10;11.48;;;26.30;58.00;;;;;;4956368;28;20069;-80
2022/08/18 09:01:56;;;;;;;19.88;11.85;;;26.30;58.00;;;;;;4956354;28;20062;-81
2022/08/18 09:05:13;;;;;;;22.20;11.88;;;26.30;58.00;;;;;;4940031;28;20058;-81
2022/08/18 09:07:53;;;;;;;20.35;12.50;;;26.30;58.80;;;;;;4952615;28;20129;-80
2022/08/18 09:10:28;;;;;;;;;;;26.30;58.70;;;;;;4973617;28;20448;-80
2022/08/18 09:13:00;;;;;;;21.52;13.15;;;26.20;58.60;;;;;;4973339;28;19949;-80
2022/08/18 09:15:38;;;;;;;25.95;13.27;;;26.30;58.80;;;;;;4939182;28;20045;-81
2022/08/18 09:18:20;;;;;;;24.77;13.80;;;26.30;58.90;;;;;;4940373;28;20038;-82
2022/08/18 09:20:54;;;;;;;24.00;12.90;;;26.30;58.60;;;;;;4939960;28;20031;-79
2022/08/18 09:23:37;;;;;;;25.67;13.05;;;26.30;58.70;;;;;;4973400;28;20114;-78
2022/08/18 09:26:22;;;;;;;30.17;13.50;;;26.40;59.00;;;;;;4973716;28;20039;-79
2022/08/18 09:28:57;;;;;;;27.90;13.98;;;26.40;59.10;;;;;;4943992;28;20042;-79
2022/08/18 09:31:23;;;;;;;22.25;12.80;;;26.40;59.00;;;;;;4943506;28;20038;-80
2022/08/18 09:34:41;;;;;;;30.00;13.30;;;26.40;59.30;;;;;;4976979;28;20030;-79
2022/08/18 09:37:20;;;;;;;28.65;13.00;;;26.50;59.10;;;;;;4897506;29;20124;-81
2022/08/18 09:43:15;;;;;;;19.42;13.25;;;26.50;58.70;;;;;;4954002;28;20034;-81
2022/08/18 09:45:55;;;;;;;21.38;11.80;;;26.60;59.10;;;;;;4942712;28;20403;-82
2022/08/18 09:48:33;;;;;;;20.55;12.40;;;26.70;58.80;;;;;;4976816;28;20113;-82
2022/08/18 09:51:19;;;;;;;20.58;12.70;;;26.80;58.60;;;;;;4976535;28;20037;-82
2022/08/18 09:53:45;;;;;;;21.25;13.68;;;26.80;58.80;;;;;;4943762;28;20031;-82
2022/08/18 09:56:35;;;;;;;27.15;13.38;;;26.80;58.80;;;;;;4957950;28;20027;-82
2022/08/18 09:59:01;;;;;;;23.23;13.48;;;26.70;58.90;;;;;;4946745;28;20049;-82
2022/08/18 10:01:38;;;;;;;23.38;13.20;;;26.90;58.60;;;;;;4959383;28;20023;-83
2022/08/18 10:04:13;;;;;;;19.70;12.80;;;26.90;59.20;;;;;;4976687;28;20082;-82
2022/08/18 10:06:43;;;;;;;22.88;12.75;;;26.90;58.70;;;;;;4958409;28;20517;-79
2022/08/18 10:09:21;;;;;;;23.77;13.55;;;26.90;58.40;;;;;;4943667;28;20027;-80
2022/08/18 10:12:09;;;;;;;22.63;13.07;;;26.90;58.70;;;;;;4959827;28;20109;-83
2022/08/18 10:14:52;;;;;;;27.00;12.95;;;26.90;58.20;;;;;;4943744;28;20177;-82
2022/08/18 10:17:48;;;;;;;21.63;13.02;;;26.90;58.40;;;;;;4942892;28;20391;-82
2022/08/18 10:20:33;;;;;;;25.23;11.77;;;26.90;58.80;;;;;;4976198;28;20104;-83
2022/08/18 10:22:59;;;;;;;21.42;12.20;;;27.00;58.10;;;;;;4940260;28;20403;-83
2022/08/18 10:25:34;;;;;;;23.65;12.75;;;27.10;57.50;;;;;;4958169;28;20031;-83
2022/08/18 10:28:04;;;;;;;22.33;12.02;;;27.10;57.30;;;;;;4958602;28;20046;-80
2022/08/18 10:30:33;;;;;;;;;;;27.10;57.80;;;;;;4959685;28;20031;-83
2022/08/18 10:33:00;;;;;;;23.50;11.68;;;27.20;58.30;;;;;;4972254;28;19953;-83
2022/08/18 10:35:35;;;;;;;21.27;12.07;;;27.20;57.30;;;;;;4941963;28;20093;-83
2022/08/18 10:38:19;;;;;;;21.02;11.90;;;27.10;57.50;;;;;;4975375;28;20034;-83
2022/08/18 10:41:11;;;;;;;20.25;10.85;;;27.20;55.80;;;;;;4958661;28;20066;-83
2022/08/18 10:43:42;;;;;;;19.00;12.07;;;27.20;55.70;;;;;;4943036;28;20026;-83
2022/08/18 10:46:22;;;;;;;19.42;11.43;;;27.30;56.40;;;;;;4926145;28;20399;-83
2022/08/18 10:49:11;;;;;;;;;;;27.20;57.50;;;;;;4959191;28;20034;-84
2022/08/18 10:51:41;;;;;;;22.45;11.52;;;27.30;56.10;;;;;;4943078;28;19910;-84
2022/08/18 10:54:29;;;;;;;21.48;11.00;;;27.30;54.90;;;;;;4975567;28;20066;-83
2022/08/18 10:57:22;;;;;;;20.63;10.60;;;27.40;54.60;;;;;;4989619;28;20065;-83
2022/08/18 11:00:02;;;;;;;19.40;10.77;;;27.40;55.20;;;;;;4975630;28;20046;-83
2022/08/18 11:03:02;;;;;;;24.15;11.23;;;27.40;54.70;;;;;;4957923;28;20102;-84
2022/08/18 11:05:28;;;;;;;19.83;11.07;;;27.50;54.60;;;;;;4974613;28;20034;-84
2022/08/18 11:07:59;;;;;;;15.52;10.18;;;27.50;54.80;;;;;;4942299;28;20039;-84
2022/08/18 11:10:42;;;;;;;18.40;11.07;;;27.50;54.50;;;;;;4958775;28;20436;-84
2022/08/18 11:13:30;;;;;;;25.73;11.23;;;27.50;54.40;;;;;;4958639;28;20027;-83
2022/08/18 11:16:12;;;;;;;21.10;10.35;;;27.50;54.50;;;;;;4957011;28;20128;-84
2022/08/18 11:18:48;;;;;;;19.05;10.48;;;27.50;54.90;;;;;;4940395;28;20034;-84
2022/08/18 11:21:33;;;;;;;16.58;10.98;;;27.50;55.00;;;;;;4973871;28;20039;-84
2022/08/18 11:24:13;;;;;;;22.08;11.02;;;27.50;55.60;;;;;;4938933;28;20038;-86
2022/08/18 11:26:55;;;;;;;17.60;9.45;;;27.50;55.80;;;;;;4941232;28;20125;-85
2022/08/18 11:29:28;;;;;;;17.95;9.73;;;27.50;53.00;;;;;;4957662;28;20029;-83
2022/08/18 11:32:34;;;;;;;19.15;9.90;;;27.70;52.90;;;;;;4957709;28;20065;-83
2022/08/18 11:35:04;;;;;;;15.85;9.50;;;27.60;53.20;;;;;;4913462;28;20038;-80
2022/08/18 11:37:49;;;;;;;14.30;9.38;;;27.60;52.10;;;;;;4940992;28;20035;-83
2022/08/18 11:40:18;;;;;;;18.25;9.77;;;27.60;51.10;;;;;;4926413;28;20035;-85
2022/08/18 11:43:13;;;;;;;21.70;9.87;;;27.60;53.60;;;;;;4941834;28;20037;-80
2022/08/18 11:45:45;;;;;;;20.17;10.30;;;27.60;53.60;;;;;;4973421;28;20747;-86
2022/08/18 11:48:14;;;;;;;31.10;10.65;;;27.50;53.80;;;;;;4957242;28;20415;-84
2022/08/18 11:50:48;;;;;;;23.37;10.17;;;27.60;54.30;;;;;;4956041;28;20431;-83
2022/08/18 11:53:31;;;;;;;17.02;9.30;;;27.70;53.00;;;;;;4957181;28;20284;-80
2022/08/18 11:56:04;;;;;;;23.00;10.60;;;27.60;52.40;;;;;;4956063;28;20034;-82
2022/08/18 11:58:44;;;;;;;19.33;9.68;;;27.60;53.30;;;;;;4957814;28;20038;-74
2022/08/18 12:01:32;;;;;;;18.67;9.88;;;27.60;53.40;;;;;;4973932;28;20114;-75
2022/08/18 12:04:12;;;;;;;27.95;9.27;;;27.60;53.20;;;;;;4973859;28;20074;-82
2022/08/18 12:06:58;;;;;;;21.10;9.82;;;27.60;52.80;;;;;;4973169;28;20035;-78
2022/08/18 12:09:42;;;;;;;15.35;9.30;;;27.60;52.60;;;;;;4973820;28;20041;-79
2022/08/18 12:12:26;;;;;;;17.88;8.90;;;27.50;53.00;;;;;;5113948;27;21012;-80
2022/08/18 12:15:00;;;;;;;20.80;8.23;;;27.50;52.00;;;;;;5109737;28;20050;-80
2022/08/18 12:18:26;;;;;;;15.52;8.15;;;27.70;51.10;;;;;;5109286;28;20225;-80
2022/08/18 12:20:51;;;;;;;15.32;8.35;;;27.70;50.10;;;;;;5055226;28;20052;-80
2022/08/18 12:23:17;;;;;;;14.80;8.38;;;27.80;49.90;;;;;;5090072;28;20191;-81
2022/08/18 12:25:43;;;;;;;14.02;7.82;;;27.80;50.30;;;;;;5090233;28;20078;-81
2022/08/18 12:28:09;;;;;;;13.35;8.57;;;27.80;50.00;;;;;;5109240;28;20051;-81
2022/08/18 12:30:35;;;;;;;16.40;7.75;;;27.70;50.60;;;;;;5109256;28;20028;-82
2022/08/18 12:33:00;;;;;;;16.15;8.55;;;27.90;49.50;;;;;;5074810;22;20041;-70
2022/08/18 12:35:27;;;;;;;17.73;8.45;;;27.90;51.00;;;;;;5034486;28;20760;-70
2022/08/18 12:37:55;;;;;;;16.13;8.63;;;27.90;50.50;;;;;;5068475;28;20028;-70
2022/08/18 12:40:21;;;;;;;15.43;8.68;;;27.80;51.20;;;;;;5067982;28;20095;-70
2022/08/18 12:42:48;;;;;;;17.52;8.75;;;27.90;50.60;;;;;;5067751;28;20086;-70
2022/08/18 12:45:14;;;;;;;14.65;8.50;;;28.00;49.90;;;;;;5068504;28;20467;-70
2022/08/18 12:47:42;;;;;;;17.50;8.38;;;28.00;50.30;;;;;;5088203;28;20103;-70
2022/08/18 12:50:08;;;;;;;17.13;9.35;;;28.00;51.20;;;;;;5088490;28;20024;-70
2022/08/18 12:52:34;;;;;;;14.18;8.98;;;28.10;50.60;;;;;;5088280;28;20050;-70
2022/08/18 12:55:00;;;;;;;15.90;9.57;;;28.30;50.70;;;;;;5070156;28;20028;-70
2022/08/18 12:57:26;;;;;;;18.77;9.13;;;28.20;50.20;;;;;;5087761;28;20511;-69
2022/08/18 12:59:53;;;;;;;15.93;8.73;;;28.20;50.50;;;;;;5088507;28;20028;-69
2022/08/18 13:02:20;;;;;;;13.55;9.10;;;28.10;50.70;;;;;;5088223;28;20439;-70
2022/08/18 13:04:46;;;;;;;14.73;9.23;;;28.10;51.10;;;;;;5037309;28;20032;-70
2022/08/18 13:07:12;;;;;;;21.63;9.48;;;28.20;50.80;;;;;;5087323;28;20028;-70
2022/08/18 13:09:40;;;;;;;19.50;11.27;;;28.20;50.90;;;;;;5068544;28;20029;-70
2022/08/18 13:12:06;;;;;;;15.73;9.50;;;28.30;50.90;;;;;;5063939;28;20028;-70
2022/08/18 13:14:32;;;;;;;14.68;9.43;;;28.20;50.90;;;;;;5084114;28;20116;-71
2022/08/18 13:16:58;;;;;;;20.20;11.65;;;28.30;49.90;;;;;;5064612;28;20686;-70
2022/08/18 13:19:24;;;;;;;20.65;11.93;;;28.40;50.40;;;;;;5065759;28;20104;-70
2022/08/18 13:21:50;;;;;;;17.85;10.85;;;28.20;50.80;;;;;;5039879;28;20040;-71